sensor_id;sensor_type;location;lat;lon;timestamp;pressure;altitude;pressure_sealevel;temperature;humidity
54512;BME280;40419;47.438;19.026;2023-07-31T00:02:19;99461.88;;;19.03;100.00
54512;BME280;40419;47.438;19.026;2023-07-31T00:04:53;99459.69;;;19.05;100.00
54512;BME280;40419;47.438;19.026;2023-07-31T00:07:18;99463.81;;;19.07;100.00
54512;BME280;40419;47.438;19.026;2023-07-31T00:09:46;99467.91;;;19.05;100.00
54512;BME280;40419;47.438;19.026;2023-07-31T00:12:15;99456.06;;;18.94;100.00
54512;BME280;40419;47.438;19.026;2023-07-31T00:14:43;99455.53;;;18.92;100.00
54512;BME280;40419;47.438;19.026;2023-07-31T00:17:08;99461.56;;;18.94;100.00
54512;BME280;40419;47.438;19.026;2023-07-31T00:19:38;99459.94;;;18.98;100.00
54512;BME280;40419;47.438;19.026;2023-07-31T00:22:11;99460.75;;;18.99;100.00
54512;BME280;40419;47.438;19.026;2023-07-31T00:24:36;99464.88;;;19.01;100.00
54512;BME280;40419;47.438;19.026;2023-07-31T00:27:02;99463.56;;;19.14;100.00
54512;BME280;40419;47.438;19.026;2023-07-31T00:29:27;99469.03;;;19.14;100.00
54512;BME280;40419;47.438;19.026;2023-07-31T00:32:00;99466.88;;;19.21;100.00
54512;BME280;40419;47.438;19.026;2023-07-31T00:34:28;99464.94;;;19.17;100.00
54512;BME280;40419;47.438;19.026;2023-07-31T00:36:55;99464.13;;;19.16;100.00
54512;BME280;40419;47.438;19.026;2023-07-31T00:39:23;99458.09;;;19.24;100.00
54512;BME280;40419;47.438;19.026;2023-07-31T00:41:51;99472.38;;;19.21;100.00
54512;BME280;40419;47.438;19.026;2023-07-31T00:44:19;99470.06;;;18.98;100.00
54512;BME280;40419;47.438;19.026;2023-07-31T00:46:44;99473.94;;;18.97;100.00
54512;BME280;40419;47.438;19.026;2023-07-31T00:49:15;99461.88;;;19.03;100.00
54512;BME280;40419;47.438;19.026;2023-07-31T00:51:43;99481.31;;;18.96;100.00
54512;BME280;40419;47.438;19.026;2023-07-31T00:54:09;99479.38;;;18.91;100.00
54512;BME280;40419;47.438;19.026;2023-07-31T00:56:40;99477.47;;;18.92;100.00
54512;BME280;40419;47.438;19.026;2023-07-31T00:59:09;99479.97;;;18.99;100.00
54512;BME280;40419;47.438;19.026;2023-07-31T01:01:34;99479.19;;;19.08;100.00
54512;BME280;40419;47.438;19.026;2023-07-31T01:04:00;99472.84;;;19.03;100.00
54512;BME280;40419;47.438;19.026;2023-07-31T01:11:47;99481.94;;;19.19;100.00
54512;BME280;40419;47.438;19.026;2023-07-31T01:14:14;99490.44;;;19.17;100.00
54512;BME280;40419;47.438;19.026;2023-07-31T01:16:46;99488.25;;;19.14;100.00
54512;BME280;40419;47.438;19.026;2023-07-31T01:19:14;99479.75;;;19.16;100.00
54512;BME280;40419;47.438;19.026;2023-07-31T01:24:59;99495.72;;;19.24;100.00
54512;BME280;40419;47.438;19.026;2023-07-31T01:27:38;99496.75;;;19.07;100.00
54512;BME280;40419;47.438;19.026;2023-07-31T01:30:11;99497.81;;;19.06;100.00
54512;BME280;40419;47.438;19.026;2023-07-31T01:32:43;99498.94;;;19.05;100.00
54512;BME280;40419;47.438;19.026;2023-07-31T01:35:09;99501.09;;;18.98;100.00
54512;BME280;40419;47.438;19.026;2023-07-31T01:37:38;99502.72;;;18.99;100.00
54512;BME280;40419;47.438;19.026;2023-07-31T01:40:04;99503.53;;;18.94;100.00
54512;BME280;40419;47.438;19.026;2023-07-31T01:42:32;99491.41;;;18.85;100.00
54512;BME280;40419;47.438;19.026;2023-07-31T01:45:00;99491.09;;;18.82;100.00
54512;BME280;40419;47.438;19.026;2023-07-31T01:47:26;99490.78;;;18.78;100.00
54512;BME280;40419;47.438;19.026;2023-07-31T01:49:54;99481.16;;;18.70;100.00
54512;BME280;40419;47.438;19.026;2023-07-31T01:52:24;99475.72;;;18.81;100.00
54512;BME280;40419;47.438;19.026;2023-07-31T01:54:50;99469.97;;;18.82;100.00
54512;BME280;40419;47.438;19.026;2023-07-31T01:57:18;99460.28;;;18.64;100.00
54512;BME280;40419;47.438;19.026;2023-07-31T01:59:46;99471.31;;;18.74;100.00
54512;BME280;40419;47.438;19.026;2023-07-31T02:02:12;99456.22;;;18.72;100.00
54512;BME280;40419;47.438;19.026;2023-07-31T02:04:40;99472.09;;;18.65;100.00
54512;BME280;40419;47.438;19.026;2023-07-31T02:07:11;99462.16;;;18.53;100.00
54512;BME280;40419;47.438;19.026;2023-07-31T02:09:36;99458.28;;;18.49;100.00
54512;BME280;40419;47.438;19.026;2023-07-31T02:12:04;99460.75;;;18.51;100.00
54512;BME280;40419;47.438;19.026;2023-07-31T02:14:30;99472.22;;;18.42;100.00
54512;BME280;40419;47.438;19.026;2023-07-31T02:16:58;99474.41;;;18.40;100.00
54512;BME280;40419;47.438;19.026;2023-07-31T02:19:28;99481.06;;;18.50;100.00
54512;BME280;40419;47.438;19.026;2023-07-31T02:21:54;99485.56;;;18.29;100.00
54512;BME280;40419;47.438;19.026;2023-07-31T02:24:26;99474.28;;;18.20;100.00
54512;BME280;40419;47.438;19.026;2023-07-31T02:26:58;99473.22;;;18.26;100.00
54512;BME280;40419;47.438;19.026;2023-07-31T02:29:27;99472.94;;;18.22;100.00
54512;BME280;40419;47.438;19.026;2023-07-31T02:31:57;99486.88;;;18.21;100.00
54512;BME280;40419;47.438;19.026;2023-07-31T02:34:27;99488.56;;;18.27;100.00
54512;BME280;40419;47.438;19.026;2023-07-31T02:36:55;99500.59;;;18.21;100.00
54512;BME280;40419;47.438;19.026;2023-07-31T02:39:23;99493.72;;;18.23;100.00
54512;BME280;40419;47.438;19.026;2023-07-31T02:41:51;99498.66;;;18.21;100.00
54512;BME280;40419;47.438;19.026;2023-07-31T02:44:20;99499.38;;;18.06;100.00
54512;BME280;40419;47.438;19.026;2023-07-31T02:46:46;99501.03;;;18.08;100.00
54512;BME280;40419;47.438;19.026;2023-07-31T02:49:14;99502.66;;;18.09;100.00
54512;BME280;40419;47.438;19.026;2023-07-31T02:51:42;99500.53;;;18.16;100.00
54512;BME280;40419;47.438;19.026;2023-07-31T02:54:12;99505.53;;;18.24;100.00
54512;BME280;40419;47.438;19.026;2023-07-31T02:56:41;99507.69;;;18.22;100.00
54512;BME280;40419;47.438;19.026;2023-07-31T02:59:06;99520.09;;;18.30;100.00
54512;BME280;40419;47.438;19.026;2023-07-31T03:01:34;99522.88;;;18.35;100.00
54512;BME280;40419;47.438;19.026;2023-07-31T03:03:59;99522.28;;;18.28;100.00
54512;BME280;40419;47.438;19.026;2023-07-31T03:06:28;99517.47;;;18.45;100.00
54512;BME280;40419;47.438;19.026;2023-07-31T03:09:00;99522.66;;;18.41;100.00
54512;BME280;40419;47.438;19.026;2023-07-31T03:11:28;99523.75;;;18.40;100.00
54512;BME280;40419;47.438;19.026;2023-07-31T03:13:57;99527.56;;;18.34;100.00
54512;BME280;40419;47.438;19.026;2023-07-31T03:16:22;99525.28;;;18.26;100.00
54512;BME280;40419;47.438;19.026;2023-07-31T03:18:50;99525.00;;;18.28;100.00
54512;BME280;40419;47.438;19.026;2023-07-31T03:21:16;99529.69;;;18.27;100.00
54512;BME280;40419;47.438;19.026;2023-07-31T03:23:43;99534.53;;;18.20;100.00
54512;BME280;40419;47.438;19.026;2023-07-31T03:26:11;99536.84;;;18.33;100.00
54512;BME280;40419;47.438;19.026;2023-07-31T03:28:42;99541.88;;;18.47;100.00
54512;BME280;40419;47.438;19.026;2023-07-31T03:31:12;99535.38;;;18.58;100.00
54512;BME280;40419;47.438;19.026;2023-07-31T03:33:38;99535.50;;;18.78;100.00
54512;BME280;40419;47.438;19.026;2023-07-31T03:36:03;99537.63;;;19.09;100.00
54512;BME280;40419;47.438;19.026;2023-07-31T03:38:29;99536.53;;;19.10;100.00
54512;BME280;40419;47.438;19.026;2023-07-31T03:40:57;99542.56;;;19.07;100.00
54512;BME280;40419;47.438;19.026;2023-07-31T03:43:26;99537.56;;;18.99;100.00
54512;BME280;40419;47.438;19.026;2023-07-31T03:45:56;99540.84;;;19.01;100.00
54512;BME280;40419;47.438;19.026;2023-07-31T03:48:21;99539.03;;;19.11;100.00
54512;BME280;40419;47.438;19.026;2023-07-31T03:50:49;99535.78;;;19.30;100.00
54512;BME280;40419;47.438;19.026;2023-07-31T03:53:18;99548.19;;;19.38;100.00
54512;BME280;40419;47.438;19.026;2023-07-31T03:55:46;99538.84;;;19.44;100.00
54512;BME280;40419;47.438;19.026;2023-07-31T03:58:11;99538.97;;;19.75;100.00
54512;BME280;40419;47.438;19.026;2023-07-31T04:00:40;99530.50;;;19.97;100.00
54512;BME280;40419;47.438;19.026;2023-07-31T04:03:08;99530.44;;;19.76;100.00
54512;BME280;40419;47.438;19.026;2023-07-31T04:05:38;99535.69;;;19.88;100.00
54512;BME280;40419;47.438;19.026;2023-07-31T04:08:06;99529.09;;;19.89;100.00
54512;BME280;40419;47.438;19.026;2023-07-31T04:10:34;99529.94;;;20.00;100.00
54512;BME280;40419;47.438;19.026;2023-07-31T04:13:02;99528.59;;;19.97;100.00
54512;BME280;40419;47.438;19.026;2023-07-31T04:15:27;99540.66;;;19.96;100.00
54512;BME280;40419;47.438;19.026;2023-07-31T04:17:53;99543.38;;;19.91;100.00
54512;BME280;40419;47.438;19.026;2023-07-31T04:20:18;99542.53;;;19.70;100.00
54512;BME280;40419;47.438;19.026;2023-07-31T04:22:46;99541.91;;;19.58;100.00
54512;BME280;40419;47.438;19.026;2023-07-31T04:25:12;99541.59;;;19.39;100.00
54512;BME280;40419;47.438;19.026;2023-07-31T04:27:37;99543.44;;;19.18;100.00
54512;BME280;40419;47.438;19.026;2023-07-31T04:30:05;99543.75;;;19.26;100.00
54512;BME280;40419;47.438;19.026;2023-07-31T04:32:31;99541.84;;;19.32;100.00
54512;BME280;40419;47.438;19.026;2023-07-31T04:34:59;99541.81;;;19.27;100.00
54512;BME280;40419;47.438;19.026;2023-07-31T04:37:24;99543.50;;;19.33;100.00
54512;BME280;40419;47.438;19.026;2023-07-31T04:39:50;99536.03;;;19.18;100.00
54512;BME280;40419;47.438;19.026;2023-07-31T04:42:18;99532.78;;;19.32;100.00
54512;BME280;40419;47.438;19.026;2023-07-31T04:44:51;99547.38;;;19.42;100.00
54512;BME280;40419;47.438;19.026;2023-07-31T04:47:18;99543.50;;;19.33;100.00
54512;BME280;40419;47.438;19.026;2023-07-31T04:49:52;99546.44;;;19.16;100.00
54512;BME280;40419;47.438;19.026;2023-07-31T04:52:17;99534.88;;;19.09;100.00
54512;BME280;40419;47.438;19.026;2023-07-31T04:54:43;99540.66;;;19.12;100.00
54512;BME280;40419;47.438;19.026;2023-07-31T04:57:12;99548.97;;;19.28;100.00
54512;BME280;40419;47.438;19.026;2023-07-31T04:59:40;99554.41;;;19.23;100.00
54512;BME280;40419;47.438;19.026;2023-07-31T05:02:08;99545.84;;;19.09;100.00
54512;BME280;40419;47.438;19.026;2023-07-31T05:04:39;99557.97;;;19.23;100.00
54512;BME280;40419;47.438;19.026;2023-07-31T05:07:04;99557.22;;;19.33;100.00
54512;BME280;40419;47.438;19.026;2023-07-31T05:09:30;99562.44;;;19.29;100.00
54512;BME280;40419;47.438;19.026;2023-07-31T05:12:01;99556.19;;;19.55;98.68
54512;BME280;40419;47.438;19.026;2023-07-31T05:14:31;99557.91;;;19.76;92.18
54512;BME280;40419;47.438;19.026;2023-07-31T05:16:57;99566.78;;;19.99;92.72
54512;BME280;40419;47.438;19.026;2023-07-31T05:19:25;99554.97;;;20.04;90.16
54512;BME280;40419;47.438;19.026;2023-07-31T05:21:50;99555.09;;;19.61;93.63
54512;BME280;40419;47.438;19.026;2023-07-31T05:24:19;99558.19;;;19.75;94.07
54512;BME280;40419;47.438;19.026;2023-07-31T05:26:47;99556.63;;;20.10;94.14
54512;BME280;40419;47.438;19.026;2023-07-31T05:29:14;99571.19;;;20.05;91.29
54512;BME280;40419;47.438;19.026;2023-07-31T05:31:40;99574.44;;;19.87;92.35
54512;BME280;40419;47.438;19.026;2023-07-31T05:34:07;99573.56;;;19.76;89.81
54512;BME280;40419;47.438;19.026;2023-07-31T05:36:35;99567.13;;;19.44;92.83
54512;BME280;40419;47.438;19.026;2023-07-31T05:39:01;99576.78;;;19.52;90.39
54512;BME280;40419;47.438;19.026;2023-07-31T05:41:31;99579.25;;;19.54;89.38
54512;BME280;40419;47.438;19.026;2023-07-31T05:43:59;99572.47;;;19.77;87.50
54512;BME280;40419;47.438;19.026;2023-07-31T05:46:29;99577.22;;;20.12;84.36
54512;BME280;40419;47.438;19.026;2023-07-31T05:49:01;99571.75;;;20.43;82.71
54512;BME280;40419;47.438;19.026;2023-07-31T05:51:29;99580.75;;;19.92;84.44
54512;BME280;40419;47.438;19.026;2023-07-31T05:53:57;99581.34;;;19.99;82.81
54512;BME280;40419;47.438;19.026;2023-07-31T05:56:22;99588.75;;;19.99;82.43
54512;BME280;40419;47.438;19.026;2023-07-31T05:58:52;99581.78;;;19.71;84.15
54512;BME280;40419;47.438;19.026;2023-07-31T06:01:18;99581.25;;;19.74;85.46
54512;BME280;40419;47.438;19.026;2023-07-31T06:03:43;99578.88;;;20.08;82.81
54512;BME280;40419;47.438;19.026;2023-07-31T06:06:11;99586.31;;;20.49;78.36
54512;BME280;40419;47.438;19.026;2023-07-31T06:08:39;99589.63;;;20.61;78.86
54512;BME280;40419;47.438;19.026;2023-07-31T06:11:05;99582.19;;;20.46;78.54
54512;BME280;40419;47.438;19.026;2023-07-31T06:13:34;99586.88;;;20.51;80.47
54512;BME280;40419;47.438;19.026;2023-07-31T06:16:00;99607.19;;;20.50;79.05
54512;BME280;40419;47.438;19.026;2023-07-31T06:18:28;99589.91;;;20.34;78.53
54512;BME280;40419;47.438;19.026;2023-07-31T06:20:55;99594.31;;;20.66;77.97
54512;BME280;40419;47.438;19.026;2023-07-31T06:23:21;99603.63;;;20.91;77.65
54512;BME280;40419;47.438;19.026;2023-07-31T06:25:51;99586.50;;;21.24;75.88
54512;BME280;40419;47.438;19.026;2023-07-31T06:28:19;99584.28;;;21.27;76.81
54512;BME280;40419;47.438;19.026;2023-07-31T06:30:47;99594.69;;;21.40;74.40
54512;BME280;40419;47.438;19.026;2023-07-31T06:33:13;99584.47;;;21.56;72.20
54512;BME280;40419;47.438;19.026;2023-07-31T06:35:43;99588.28;;;21.65;69.38
54512;BME280;40419;47.438;19.026;2023-07-31T06:38:09;99590.53;;;21.58;69.74
54512;BME280;40419;47.438;19.026;2023-07-31T06:40:34;99581.00;;;21.24;72.48
54512;BME280;40419;47.438;19.026;2023-07-31T06:43:03;99594.16;;;21.33;70.18
54512;BME280;40419;47.438;19.026;2023-07-31T06:45:34;99590.66;;;21.12;71.51
54512;BME280;40419;47.438;19.026;2023-07-31T06:48:00;99596.47;;;21.05;71.83
54512;BME280;40419;47.438;19.026;2023-07-31T06:50:34;99594.81;;;21.09;71.97
54512;BME280;40419;47.438;19.026;2023-07-31T06:52:59;99604.22;;;20.82;74.31
54512;BME280;40419;47.438;19.026;2023-07-31T06:55:27;99590.44;;;20.57;74.08
54512;BME280;40419;47.438;19.026;2023-07-31T06:57:54;99600.91;;;20.75;72.54
54512;BME280;40419;47.438;19.026;2023-07-31T07:00:21;99593.19;;;20.46;75.58
54512;BME280;40419;47.438;19.026;2023-07-31T07:02:47;99603.91;;;20.32;75.99
54512;BME280;40419;47.438;19.026;2023-07-31T07:05:13;99610.78;;;20.25;75.91
54512;BME280;40419;47.438;19.026;2023-07-31T07:07:40;99616.56;;;20.44;76.05
54512;BME280;40419;47.438;19.026;2023-07-31T07:10:08;99620.69;;;20.51;75.01
54512;BME280;40419;47.438;19.026;2023-07-31T07:12:36;99618.25;;;20.65;76.49
54512;BME280;40419;47.438;19.026;2023-07-31T07:15:04;99606.38;;;20.65;77.88
54512;BME280;40419;47.438;19.026;2023-07-31T07:17:32;99613.56;;;20.81;77.92
54512;BME280;40419;47.438;19.026;2023-07-31T07:20:01;99615.75;;;20.89;76.18
54512;BME280;40419;47.438;19.026;2023-07-31T07:22:27;99615.16;;;21.03;76.31
54512;BME280;40419;47.438;19.026;2023-07-31T07:24:55;99610.97;;;21.36;76.58
54512;BME280;40419;47.438;19.026;2023-07-31T07:27:23;99613.63;;;21.67;74.11
54512;BME280;40419;47.438;19.026;2023-07-31T07:29:53;99617.19;;;21.73;70.15
54512;BME280;40419;47.438;19.026;2023-07-31T07:32:24;99612.97;;;21.86;70.94
54512;BME280;40419;47.438;19.026;2023-07-31T07:34:55;99621.69;;;22.03;70.53
54512;BME280;40419;47.438;19.026;2023-07-31T07:37:21;99615.28;;;22.13;70.04
54512;BME280;40419;47.438;19.026;2023-07-31T07:39:49;99613.50;;;22.38;66.75
54512;BME280;40419;47.438;19.026;2023-07-31T07:42:17;99617.66;;;22.30;64.18
54512;BME280;40419;47.438;19.026;2023-07-31T07:44:45;99613.66;;;22.52;63.96
54512;BME280;40419;47.438;19.026;2023-07-31T07:47:13;99611.06;;;22.31;63.81
54512;BME280;40419;47.438;19.026;2023-07-31T07:49:46;99604.16;;;21.84;67.58
54512;BME280;40419;47.438;19.026;2023-07-31T07:52:14;99606.41;;;21.82;62.95
54512;BME280;40419;47.438;19.026;2023-07-31T07:54:42;99618.88;;;21.58;64.38
54512;BME280;40419;47.438;19.026;2023-07-31T07:57:08;99616.50;;;21.26;66.52
54512;BME280;40419;47.438;19.026;2023-07-31T07:59:33;99616.75;;;21.35;67.28
54512;BME280;40419;47.438;19.026;2023-07-31T08:02:03;99627.50;;;21.26;67.19
54512;BME280;40419;47.438;19.026;2023-07-31T08:04:31;99613.13;;;21.45;68.62
54512;BME280;40419;47.438;19.026;2023-07-31T08:07:03;99625.31;;;21.93;66.27
54512;BME280;40419;47.438;19.026;2023-07-31T08:09:31;99624.47;;;21.98;65.39
54512;BME280;40419;47.438;19.026;2023-07-31T08:11:56;99621.88;;;22.17;63.15
54512;BME280;40419;47.438;19.026;2023-07-31T08:14:27;99623.44;;;22.34;64.43
54512;BME280;40419;47.438;19.026;2023-07-31T08:16:53;99620.16;;;22.32;63.40
54512;BME280;40419;47.438;19.026;2023-07-31T08:19:20;99618.94;;;22.48;55.55
54512;BME280;40419;47.438;19.026;2023-07-31T08:21:49;99625.66;;;22.66;54.59
54512;BME280;40419;47.438;19.026;2023-07-31T08:36:50;99617.34;;;22.37;57.93
54512;BME280;40419;47.438;19.026;2023-07-31T08:39:18;99610.25;;;22.25;60.02
54512;BME280;40419;47.438;19.026;2023-07-31T08:41:45;99607.22;;;22.22;60.68
54512;BME280;40419;47.438;19.026;2023-07-31T08:44:13;99613.66;;;22.12;61.88
54512;BME280;40419;47.438;19.026;2023-07-31T08:46:45;99613.31;;;22.24;60.12
54512;BME280;40419;47.438;19.026;2023-07-31T08:49:20;99608.56;;;22.29;60.33
54512;BME280;40419;47.438;19.026;2023-07-31T08:51:49;99614.56;;;22.42;60.98
54512;BME280;40419;47.438;19.026;2023-07-31T08:54:15;99600.09;;;22.55;56.90
54512;BME280;40419;47.438;19.026;2023-07-31T08:56:46;99600.16;;;22.50;57.09
54512;BME280;40419;47.438;19.026;2023-07-31T08:59:12;99605.63;;;22.55;57.22
54512;BME280;40419;47.438;19.026;2023-07-31T09:01:44;99598.25;;;22.80;52.68
54512;BME280;40419;47.438;19.026;2023-07-31T09:04:14;99603.28;;;22.73;54.77
54512;BME280;40419;47.438;19.026;2023-07-31T09:06:40;99601.28;;;22.78;54.00
54512;BME280;40419;47.438;19.026;2023-07-31T09:09:12;99591.91;;;23.04;55.23
54512;BME280;40419;47.438;19.026;2023-07-31T09:11:40;99598.13;;;23.20;54.39
54512;BME280;40419;47.438;19.026;2023-07-31T09:14:13;99606.06;;;23.50;56.16
54512;BME280;40419;47.438;19.026;2023-07-31T09:19:32;99599.63;;;23.55;54.52
54512;BME280;40419;47.438;19.026;2023-07-31T09:22:01;99600.19;;;23.57;53.25
54512;BME280;40419;47.438;19.026;2023-07-31T09:24:28;99599.72;;;23.50;52.08
54512;BME280;40419;47.438;19.026;2023-07-31T09:26:59;99600.88;;;23.68;51.33
54512;BME280;40419;47.438;19.026;2023-07-31T09:29:30;99604.16;;;23.70;51.24
54512;BME280;40419;47.438;19.026;2023-07-31T09:32:02;99598.03;;;23.73;51.98
54512;BME280;40419;47.438;19.026;2023-07-31T09:34:37;99610.78;;;23.93;52.09
54512;BME280;40419;47.438;19.026;2023-07-31T09:37:07;99600.63;;;23.88;48.00
54512;BME280;40419;47.438;19.026;2023-07-31T09:39:47;99593.81;;;23.57;49.36
54512;BME280;40419;47.438;19.026;2023-07-31T09:42:25;99594.09;;;23.55;52.41
54512;BME280;40419;47.438;19.026;2023-07-31T09:44:53;99591.19;;;23.89;51.99
54512;BME280;40419;47.438;19.026;2023-07-31T09:47:22;99582.88;;;23.70;53.34
54512;BME280;40419;47.438;19.026;2023-07-31T09:49:52;99583.28;;;24.02;49.43
54512;BME280;40419;47.438;19.026;2023-07-31T09:52:20;99588.22;;;23.86;50.16
54512;BME280;40419;47.438;19.026;2023-07-31T09:54:48;99592.56;;;23.92;47.00
54512;BME280;40419;47.438;19.026;2023-07-31T09:57:16;99593.56;;;23.77;46.97
54512;BME280;40419;47.438;19.026;2023-07-31T09:59:47;99590.44;;;23.84;48.49
54512;BME280;40419;47.438;19.026;2023-07-31T10:02:19;99585.78;;;23.79;50.07
54512;BME280;40419;47.438;19.026;2023-07-31T10:04:49;99581.78;;;23.91;51.96
54512;BME280;40419;47.438;19.026;2023-07-31T10:07:17;99583.44;;;23.92;50.45
54512;BME280;40419;47.438;19.026;2023-07-31T10:09:46;99592.25;;;23.94;49.49
54512;BME280;40419;47.438;19.026;2023-07-31T10:12:16;99596.22;;;23.82;50.38
54512;BME280;40419;47.438;19.026;2023-07-31T10:14:44;99586.25;;;23.86;49.59
54512;BME280;40419;47.438;19.026;2023-07-31T10:17:13;99592.34;;;23.83;49.53
54512;BME280;40419;47.438;19.026;2023-07-31T10:19:41;99592.19;;;23.75;51.13
54512;BME280;40419;47.438;19.026;2023-07-31T10:22:09;99579.03;;;24.10;49.00
54512;BME280;40419;47.438;19.026;2023-07-31T10:24:36;99588.72;;;24.26;48.63
54512;BME280;40419;47.438;19.026;2023-07-31T10:27:05;99597.03;;;23.88;50.63
54512;BME280;40419;47.438;19.026;2023-07-31T10:29:35;99588.34;;;24.33;48.08
54512;BME280;40419;47.438;19.026;2023-07-31T10:32:06;99578.19;;;24.09;50.08
54512;BME280;40419;47.438;19.026;2023-07-31T10:34:41;99585.31;;;23.96;50.29
54512;BME280;40419;47.438;19.026;2023-07-31T10:37:41;99580.78;;;24.38;49.41
54512;BME280;40419;47.438;19.026;2023-07-31T10:40:25;99574.50;;;24.33;49.70
54512;BME280;40419;47.438;19.026;2023-07-31T10:45:36;99569.84;;;24.47;47.95
54512;BME280;40419;47.438;19.026;2023-07-31T10:48:12;99567.56;;;24.35;49.04
54512;BME280;40419;47.438;19.026;2023-07-31T10:50:47;99569.03;;;24.80;48.23
54512;BME280;40419;47.438;19.026;2023-07-31T10:53:32;99556.31;;;24.46;50.37
54512;BME280;40419;47.438;19.026;2023-07-31T10:56:02;99559.47;;;24.58;49.35
54512;BME280;40419;47.438;19.026;2023-07-31T10:58:32;99564.84;;;24.82;47.96
54512;BME280;40419;47.438;19.026;2023-07-31T11:01:04;99563.31;;;24.76;45.21
54512;BME280;40419;47.438;19.026;2023-07-31T11:06:08;99562.28;;;24.86;45.47
54512;BME280;40419;47.438;19.026;2023-07-31T11:08:36;99561.78;;;24.98;45.79
54512;BME280;40419;47.438;19.026;2023-07-31T11:11:08;99563.31;;;24.90;46.11
54512;BME280;40419;47.438;19.026;2023-07-31T11:16:13;99545.84;;;24.75;45.11
54512;BME280;40419;47.438;19.026;2023-07-31T11:18:43;99556.50;;;24.68;44.99
54512;BME280;40419;47.438;19.026;2023-07-31T11:21:15;99551.75;;;24.55;45.85
54512;BME280;40419;47.438;19.026;2023-07-31T11:23:51;99545.78;;;24.48;46.17
54512;BME280;40419;47.438;19.026;2023-07-31T11:26:18;99549.03;;;24.83;44.78
54512;BME280;40419;47.438;19.026;2023-07-31T11:28:47;99537.91;;;24.55;46.52
54512;BME280;40419;47.438;19.026;2023-07-31T11:31:13;99535.38;;;24.72;45.20
54512;BME280;40419;47.438;19.026;2023-07-31T11:33:42;99544.72;;;24.63;45.47
54512;BME280;40419;47.438;19.026;2023-07-31T11:36:16;99537.47;;;24.48;45.65
54512;BME280;40419;47.438;19.026;2023-07-31T11:38:42;99540.53;;;24.79;44.03
54512;BME280;40419;47.438;19.026;2023-07-31T11:41:14;99534.09;;;24.51;44.96
54512;BME280;40419;47.438;19.026;2023-07-31T11:43:45;99532.38;;;24.55;46.11
54512;BME280;40419;47.438;19.026;2023-07-31T11:46:13;99528.31;;;24.80;44.55
54512;BME280;40419;47.438;19.026;2023-07-31T11:48:40;99531.69;;;24.77;45.22
54512;BME280;40419;47.438;19.026;2023-07-31T11:51:08;99533.09;;;24.61;44.26
54512;BME280;40419;47.438;19.026;2023-07-31T11:56:03;99543.75;;;25.00;44.27
54512;BME280;40419;47.438;19.026;2023-07-31T11:58:33;99532.94;;;24.85;45.07
54512;BME280;40419;47.438;19.026;2023-07-31T12:00:59;99534.34;;;24.68;42.83
54512;BME280;40419;47.438;19.026;2023-07-31T12:03:29;99525.94;;;24.59;43.89
54512;BME280;40419;47.438;19.026;2023-07-31T12:06:01;99527.69;;;24.69;42.78
54512;BME280;40419;47.438;19.026;2023-07-31T12:08:29;99520.41;;;24.59;43.87
54512;BME280;40419;47.438;19.026;2023-07-31T12:11:05;99527.63;;;24.88;41.89
54512;BME280;40419;47.438;19.026;2023-07-31T12:13:32;99529.53;;;24.74;42.56
54512;BME280;40419;47.438;19.026;2023-07-31T12:16:03;99522.28;;;24.64;42.77
54512;BME280;40419;47.438;19.026;2023-07-31T12:18:33;99524.56;;;24.90;43.01
54512;BME280;40419;47.438;19.026;2023-07-31T12:21:03;99520.03;;;24.94;44.12
54512;BME280;40419;47.438;19.026;2023-07-31T12:23:34;99508.25;;;24.88;43.16
54512;BME280;40419;47.438;19.026;2023-07-31T12:28:39;99514.72;;;24.98;41.86
54512;BME280;40419;47.438;19.026;2023-07-31T12:31:05;99501.56;;;24.62;43.31
54512;BME280;40419;47.438;19.026;2023-07-31T12:33:35;99503.41;;;24.80;44.25
54512;BME280;40419;47.438;19.026;2023-07-31T12:36:03;99511.81;;;24.75;44.50
54512;BME280;40419;47.438;19.026;2023-07-31T12:38:30;99496.75;;;24.81;44.24
54512;BME280;40419;47.438;19.026;2023-07-31T12:41:00;99502.91;;;24.92;45.21
54512;BME280;40419;47.438;19.026;2023-07-31T12:43:28;99502.50;;;24.99;41.99
54512;BME280;40419;47.438;19.026;2023-07-31T12:46:00;99499.00;;;24.93;44.04
54512;BME280;40419;47.438;19.026;2023-07-31T12:48:28;99499.63;;;24.76;44.34
54512;BME280;40419;47.438;19.026;2023-07-31T12:50:57;99492.63;;;24.65;45.03
54512;BME280;40419;47.438;19.026;2023-07-31T12:53:29;99493.25;;;24.89;43.50
54512;BME280;40419;47.438;19.026;2023-07-31T12:55:59;99494.19;;;24.99;44.13
54512;BME280;40419;47.438;19.026;2023-07-31T12:58:27;99489.97;;;25.01;43.59
54512;BME280;40419;47.438;19.026;2023-07-31T13:00:52;99481.16;;;24.71;45.45
54512;BME280;40419;47.438;19.026;2023-07-31T13:03:20;99490.69;;;24.65;44.13
54512;BME280;40419;47.438;19.026;2023-07-31T13:05:49;99488.88;;;24.74;43.02
54512;BME280;40419;47.438;19.026;2023-07-31T13:08:17;99476.34;;;24.77;43.50
54512;BME280;40419;47.438;19.026;2023-07-31T13:10:45;99472.59;;;24.40;44.19
54512;BME280;40419;47.438;19.026;2023-07-31T13:13:15;99473.56;;;24.63;43.61
54512;BME280;40419;47.438;19.026;2023-07-31T13:15:41;99467.56;;;24.56;44.80
54512;BME280;40419;47.438;19.026;2023-07-31T13:18:06;99481.69;;;24.40;45.79
54512;BME280;40419;47.438;19.026;2023-07-31T13:20:34;99469.53;;;24.55;44.19
54512;BME280;40419;47.438;19.026;2023-07-31T13:22:59;99473.41;;;24.54;44.43
54512;BME280;40419;47.438;19.026;2023-07-31T13:25:27;99464.81;;;24.56;43.94
54512;BME280;40419;47.438;19.026;2023-07-31T13:27:56;99475.34;;;24.40;43.42
54512;BME280;40419;47.438;19.026;2023-07-31T13:30:24;99472.59;;;24.40;44.80